sensor_id;sensor_type;location;lat;lon;timestamp;P1;durP1;ratioP1;P2;durP2;ratioP2
22080;SDS011;11207;59.512;18.050;2023-04-16T00:00:32;7.67;;;6.03;;
22080;SDS011;11207;59.512;18.050;2023-04-16T00:02:58;7.27;;;6.03;;
22080;SDS011;11207;59.512;18.050;2023-04-16T00:05:23;6.77;;;5.63;;
22080;SDS011;11207;59.512;18.050;2023-04-16T00:07:49;6.37;;;5.50;;
22080;SDS011;11207;59.512;18.050;2023-04-16T00:10:15;6.10;;;5.50;;
22080;SDS011;11207;59.512;18.050;2023-04-16T00:12:41;6.07;;;5.47;;
22080;SDS011;11207;59.512;18.050;2023-04-16T00:15:07;6.87;;;6.00;;
22080;SDS011;11207;59.512;18.050;2023-04-16T00:17:33;6.73;;;6.03;;
22080;SDS011;11207;59.512;18.050;2023-04-16T00:19:59;8.00;;;5.60;;
22080;SDS011;11207;59.512;18.050;2023-04-16T00:22:24;6.87;;;5.37;;
22080;SDS011;11207;59.512;18.050;2023-04-16T00:24:50;7.53;;;5.73;;
22080;SDS011;11207;59.512;18.050;2023-04-16T00:27:17;6.37;;;5.73;;
22080;SDS011;11207;59.512;18.050;2023-04-16T00:29:44;6.87;;;6.00;;
22080;SDS011;11207;59.512;18.050;2023-04-16T00:32:10;6.37;;;5.77;;
22080;SDS011;11207;59.512;18.050;2023-04-16T00:34:35;7.63;;;5.87;;
22080;SDS011;11207;59.512;18.050;2023-04-16T00:37:01;6.53;;;5.67;;
22080;SDS011;11207;59.512;18.050;2023-04-16T00:39:26;5.90;;;5.30;;
22080;SDS011;11207;59.512;18.050;2023-04-16T00:41:52;6.37;;;5.73;;
22080;SDS011;11207;59.512;18.050;2023-04-16T00:44:18;6.63;;;5.93;;
22080;SDS011;11207;59.512;18.050;2023-04-16T00:46:43;6.60;;;5.90;;
22080;SDS011;11207;59.512;18.050;2023-04-16T00:49:10;6.63;;;5.97;;
22080;SDS011;11207;59.512;18.050;2023-04-16T00:51:36;12.70;;;6.20;;
22080;SDS011;11207;59.512;18.050;2023-04-16T00:54:02;6.53;;;5.63;;
22080;SDS011;11207;59.512;18.050;2023-04-16T00:56:28;7.03;;;5.50;;
22080;SDS011;11207;59.512;18.050;2023-04-16T00:58:55;6.80;;;6.00;;
22080;SDS011;11207;59.512;18.050;2023-04-16T01:01:21;10.37;;;6.13;;
22080;SDS011;11207;59.512;18.050;2023-04-16T01:03:47;8.17;;;6.40;;
22080;SDS011;11207;59.512;18.050;2023-04-16T01:06:14;7.20;;;6.23;;
22080;SDS011;11207;59.512;18.050;2023-04-16T01:08:41;11.87;;;6.23;;
22080;SDS011;11207;59.512;18.050;2023-04-16T01:11:08;6.93;;;6.07;;
22080;SDS011;11207;59.512;18.050;2023-04-16T01:13:34;9.80;;;5.83;;
22080;SDS011;11207;59.512;18.050;2023-04-16T01:16:03;6.60;;;5.77;;
22080;SDS011;11207;59.512;18.050;2023-04-16T01:18:33;7.00;;;5.80;;
22080;SDS011;11207;59.512;18.050;2023-04-16T01:20:59;6.87;;;5.50;;
22080;SDS011;11207;59.512;18.050;2023-04-16T01:23:25;8.20;;;5.60;;
22080;SDS011;11207;59.512;18.050;2023-04-16T01:25:50;8.10;;;5.83;;
22080;SDS011;11207;59.512;18.050;2023-04-16T01:28:16;7.20;;;5.67;;
22080;SDS011;11207;59.512;18.050;2023-04-16T01:30:42;8.80;;;5.67;;
22080;SDS011;11207;59.512;18.050;2023-04-16T01:33:11;7.67;;;6.30;;
22080;SDS011;11207;59.512;18.050;2023-04-16T01:35:37;7.43;;;5.67;;
22080;SDS011;11207;59.512;18.050;2023-04-16T01:38:04;7.53;;;5.57;;
22080;SDS011;11207;59.512;18.050;2023-04-16T01:40:32;6.27;;;5.67;;
22080;SDS011;11207;59.512;18.050;2023-04-16T01:43:01;9.10;;;6.37;;
22080;SDS011;11207;59.512;18.050;2023-04-16T01:45:27;6.97;;;5.80;;
22080;SDS011;11207;59.512;18.050;2023-04-16T01:47:52;5.90;;;5.30;;
22080;SDS011;11207;59.512;18.050;2023-04-16T01:50:18;7.27;;;5.73;;
22080;SDS011;11207;59.512;18.050;2023-04-16T01:52:45;6.63;;;5.60;;
22080;SDS011;11207;59.512;18.050;2023-04-16T01:55:11;6.77;;;5.97;;
22080;SDS011;11207;59.512;18.050;2023-04-16T01:57:37;9.40;;;5.83;;
22080;SDS011;11207;59.512;18.050;2023-04-16T02:00:03;7.33;;;5.67;;
22080;SDS011;11207;59.512;18.050;2023-04-16T02:02:29;6.13;;;5.43;;
22080;SDS011;11207;59.512;18.050;2023-04-16T02:04:55;8.00;;;5.80;;
22080;SDS011;11207;59.512;18.050;2023-04-16T02:07:21;8.77;;;6.03;;
22080;SDS011;11207;59.512;18.050;2023-04-16T02:09:48;9.70;;;5.67;;
22080;SDS011;11207;59.512;18.050;2023-04-16T02:12:17;7.73;;;6.03;;
22080;SDS011;11207;59.512;18.050;2023-04-16T02:14:43;6.30;;;5.63;;
22080;SDS011;11207;59.512;18.050;2023-04-16T02:17:09;6.23;;;5.60;;
22080;SDS011;11207;59.512;18.050;2023-04-16T02:19:35;7.17;;;5.37;;
22080;SDS011;11207;59.512;18.050;2023-04-16T02:22:00;7.30;;;5.47;;
22080;SDS011;11207;59.512;18.050;2023-04-16T02:24:26;8.97;;;5.80;;
22080;SDS011;11207;59.512;18.050;2023-04-16T02:26:52;6.27;;;5.67;;
22080;SDS011;11207;59.512;18.050;2023-04-16T02:29:18;8.10;;;5.70;;
22080;SDS011;11207;59.512;18.050;2023-04-16T02:31:44;7.20;;;5.83;;
22080;SDS011;11207;59.512;18.050;2023-04-16T02:34:10;7.97;;;6.10;;
22080;SDS011;11207;59.512;18.050;2023-04-16T02:36:36;6.30;;;5.77;;
22080;SDS011;11207;59.512;18.050;2023-04-16T02:39:02;7.67;;;6.07;;
22080;SDS011;11207;59.512;18.050;2023-04-16T02:41:28;8.30;;;6.03;;
22080;SDS011;11207;59.512;18.050;2023-04-16T02:43:53;6.33;;;5.70;;
22080;SDS011;11207;59.512;18.050;2023-04-16T02:46:19;6.57;;;5.93;;
22080;SDS011;11207;59.512;18.050;2023-04-16T02:48:44;7.60;;;6.20;;
22080;SDS011;11207;59.512;18.050;2023-04-16T02:51:10;6.77;;;5.70;;
22080;SDS011;11207;59.512;18.050;2023-04-16T02:53:35;6.90;;;6.00;;
22080;SDS011;11207;59.512;18.050;2023-04-16T02:56:01;7.37;;;5.67;;
22080;SDS011;11207;59.512;18.050;2023-04-16T02:58:27;7.23;;;5.60;;
22080;SDS011;11207;59.512;18.050;2023-04-16T03:00:53;8.57;;;6.27;;
22080;SDS011;11207;59.512;18.050;2023-04-16T03:03:19;7.77;;;6.47;;
22080;SDS011;11207;59.512;18.050;2023-04-16T03:05:45;8.10;;;6.23;;
22080;SDS011;11207;59.512;18.050;2023-04-16T03:08:11;6.70;;;5.77;;
22080;SDS011;11207;59.512;18.050;2023-04-16T03:10:36;7.77;;;6.43;;
22080;SDS011;11207;59.512;18.050;2023-04-16T03:13:02;11.43;;;6.77;;
22080;SDS011;11207;59.512;18.050;2023-04-16T03:15:28;7.30;;;6.43;;
22080;SDS011;11207;59.512;18.050;2023-04-16T03:17:55;9.43;;;6.97;;
22080;SDS011;11207;59.512;18.050;2023-04-16T03:20:21;8.97;;;6.00;;
22080;SDS011;11207;59.512;18.050;2023-04-16T03:22:48;6.43;;;5.83;;
22080;SDS011;11207;59.512;18.050;2023-04-16T03:25:14;10.50;;;7.20;;
22080;SDS011;11207;59.512;18.050;2023-04-16T03:27:39;10.00;;;6.47;;
22080;SDS011;11207;59.512;18.050;2023-04-16T03:30:12;8.00;;;6.27;;
22080;SDS011;11207;59.512;18.050;2023-04-16T03:32:38;9.00;;;6.60;;
22080;SDS011;11207;59.512;18.050;2023-04-16T03:35:04;6.87;;;6.23;;
22080;SDS011;11207;59.512;18.050;2023-04-16T03:37:31;7.90;;;5.80;;
22080;SDS011;11207;59.512;18.050;2023-04-16T03:39:57;10.57;;;6.57;;
22080;SDS011;11207;59.512;18.050;2023-04-16T03:42:23;8.33;;;6.37;;
22080;SDS011;11207;59.512;18.050;2023-04-16T03:44:48;7.40;;;6.30;;
22080;SDS011;11207;59.512;18.050;2023-04-16T03:47:14;8.93;;;6.33;;
22080;SDS011;11207;59.512;18.050;2023-04-16T03:49:40;8.70;;;6.37;;
22080;SDS011;11207;59.512;18.050;2023-04-16T03:52:05;8.20;;;6.37;;
22080;SDS011;11207;59.512;18.050;2023-04-16T03:54:31;8.87;;;6.47;;
22080;SDS011;11207;59.512;18.050;2023-04-16T03:56:57;7.60;;;6.20;;
22080;SDS011;11207;59.512;18.050;2023-04-16T03:59:22;9.70;;;6.90;;
22080;SDS011;11207;59.512;18.050;2023-04-16T04:01:48;7.43;;;6.70;;
22080;SDS011;11207;59.512;18.050;2023-04-16T04:04:13;6.83;;;6.07;;
22080;SDS011;11207;59.512;18.050;2023-04-16T04:06:39;11.70;;;6.53;;
22080;SDS011;11207;59.512;18.050;2023-04-16T04:09:05;10.80;;;7.40;;
22080;SDS011;11207;59.512;18.050;2023-04-16T04:11:31;8.07;;;6.43;;
22080;SDS011;11207;59.512;18.050;2023-04-16T04:13:56;10.43;;;7.80;;
22080;SDS011;11207;59.512;18.050;2023-04-16T04:16:22;7.23;;;6.50;;
22080;SDS011;11207;59.512;18.050;2023-04-16T04:18:48;9.37;;;6.80;;
22080;SDS011;11207;59.512;18.050;2023-04-16T04:21:13;10.33;;;6.77;;
22080;SDS011;11207;59.512;18.050;2023-04-16T04:23:39;11.20;;;7.13;;
22080;SDS011;11207;59.512;18.050;2023-04-16T04:26:06;8.60;;;6.87;;
22080;SDS011;11207;59.512;18.050;2023-04-16T04:28:32;9.30;;;6.97;;
22080;SDS011;11207;59.512;18.050;2023-04-16T04:30:58;7.40;;;6.47;;
22080;SDS011;11207;59.512;18.050;2023-04-16T04:33:25;8.27;;;6.00;;
22080;SDS011;11207;59.512;18.050;2023-04-16T04:35:51;8.00;;;6.60;;
22080;SDS011;11207;59.512;18.050;2023-04-16T04:38:17;9.17;;;7.20;;
22080;SDS011;11207;59.512;18.050;2023-04-16T04:40:44;10.50;;;7.17;;
22080;SDS011;11207;59.512;18.050;2023-04-16T04:43:10;8.13;;;6.60;;
22080;SDS011;11207;59.512;18.050;2023-04-16T04:45:36;14.43;;;7.77;;
22080;SDS011;11207;59.512;18.050;2023-04-16T04:48:01;7.20;;;6.50;;
22080;SDS011;11207;59.512;18.050;2023-04-16T04:50:27;11.90;;;7.63;;
22080;SDS011;11207;59.512;18.050;2023-04-16T04:52:52;8.80;;;6.70;;
22080;SDS011;11207;59.512;18.050;2023-04-16T04:55:18;9.23;;;7.33;;
22080;SDS011;11207;59.512;18.050;2023-04-16T04:57:43;16.13;;;8.43;;
22080;SDS011;11207;59.512;18.050;2023-04-16T05:00:09;7.30;;;6.13;;
22080;SDS011;11207;59.512;18.050;2023-04-16T05:02:35;10.00;;;6.80;;
22080;SDS011;11207;59.512;18.050;2023-04-16T05:05:01;8.40;;;7.33;;
22080;SDS011;11207;59.512;18.050;2023-04-16T05:07:27;10.20;;;7.13;;
22080;SDS011;11207;59.512;18.050;2023-04-16T05:09:53;8.37;;;6.90;;
22080;SDS011;11207;59.512;18.050;2023-04-16T05:12:18;10.07;;;6.87;;
22080;SDS011;11207;59.512;18.050;2023-04-16T05:14:44;7.70;;;6.17;;
22080;SDS011;11207;59.512;18.050;2023-04-16T05:17:09;11.00;;;7.33;;
22080;SDS011;11207;59.512;18.050;2023-04-16T05:19:35;8.70;;;6.83;;
22080;SDS011;11207;59.512;18.050;2023-04-16T05:22:01;8.30;;;6.80;;
22080;SDS011;11207;59.512;18.050;2023-04-16T05:24:27;12.10;;;7.37;;
22080;SDS011;11207;59.512;18.050;2023-04-16T05:26:53;9.53;;;7.17;;
22080;SDS011;11207;59.512;18.050;2023-04-16T05:29:18;11.37;;;7.60;;
22080;SDS011;11207;59.512;18.050;2023-04-16T05:31:44;10.67;;;7.33;;
22080;SDS011;11207;59.512;18.050;2023-04-16T05:34:10;10.27;;;6.83;;
22080;SDS011;11207;59.512;18.050;2023-04-16T05:36:35;11.87;;;6.80;;
22080;SDS011;11207;59.512;18.050;2023-04-16T05:39:01;11.87;;;7.60;;
22080;SDS011;11207;59.512;18.050;2023-04-16T05:41:27;8.37;;;6.73;;
22080;SDS011;11207;59.512;18.050;2023-04-16T05:43:52;10.53;;;7.83;;
22080;SDS011;11207;59.512;18.050;2023-04-16T05:46:18;9.10;;;6.80;;
22080;SDS011;11207;59.512;18.050;2023-04-16T05:48:43;8.07;;;6.60;;
22080;SDS011;11207;59.512;18.050;2023-04-16T05:51:09;7.97;;;6.70;;
22080;SDS011;11207;59.512;18.050;2023-04-16T05:53:34;8.47;;;6.50;;
22080;SDS011;11207;59.512;18.050;2023-04-16T05:56:00;11.00;;;6.27;;
22080;SDS011;11207;59.512;18.050;2023-04-16T05:58:26;9.90;;;6.30;;
22080;SDS011;11207;59.512;18.050;2023-04-16T06:00:51;7.37;;;6.63;;
22080;SDS011;11207;59.512;18.050;2023-04-16T06:03:17;8.13;;;6.57;;
22080;SDS011;11207;59.512;18.050;2023-04-16T06:05:43;8.67;;;6.20;;
22080;SDS011;11207;59.512;18.050;2023-04-16T06:08:08;11.07;;;6.43;;
22080;SDS011;11207;59.512;18.050;2023-04-16T06:10:34;9.97;;;6.70;;
22080;SDS011;11207;59.512;18.050;2023-04-16T06:13:00;9.37;;;6.37;;
22080;SDS011;11207;59.512;18.050;2023-04-16T06:15:25;7.60;;;6.67;;
22080;SDS011;11207;59.512;18.050;2023-04-16T06:17:51;7.70;;;6.00;;
22080;SDS011;11207;59.512;18.050;2023-04-16T06:20:16;6.93;;;5.77;;
22080;SDS011;11207;59.512;18.050;2023-04-16T06:22:42;8.43;;;6.17;;
22080;SDS011;11207;59.512;18.050;2023-04-16T06:25:08;8.67;;;6.77;;
22080;SDS011;11207;59.512;18.050;2023-04-16T06:27:34;6.23;;;5.63;;
22080;SDS011;11207;59.512;18.050;2023-04-16T06:29:59;7.03;;;5.93;;
22080;SDS011;11207;59.512;18.050;2023-04-16T06:32:25;6.90;;;5.50;;
22080;SDS011;11207;59.512;18.050;2023-04-16T06:34:50;7.27;;;6.23;;
22080;SDS011;11207;59.512;18.050;2023-04-16T06:37:16;7.17;;;5.47;;
22080;SDS011;11207;59.512;18.050;2023-04-16T06:39:42;6.20;;;5.60;;
22080;SDS011;11207;59.512;18.050;2023-04-16T06:42:07;6.27;;;5.67;;
22080;SDS011;11207;59.512;18.050;2023-04-16T06:44:34;10.57;;;5.67;;
22080;SDS011;11207;59.512;18.050;2023-04-16T06:46:59;6.93;;;5.90;;
22080;SDS011;11207;59.512;18.050;2023-04-16T06:49:25;8.03;;;6.30;;
22080;SDS011;11207;59.512;18.050;2023-04-16T06:51:51;8.00;;;5.60;;
22080;SDS011;11207;59.512;18.050;2023-04-16T06:54:16;8.03;;;5.63;;
22080;SDS011;11207;59.512;18.050;2023-04-16T06:56:43;6.30;;;5.63;;
22080;SDS011;11207;59.512;18.050;2023-04-16T06:59:09;6.67;;;5.47;;
22080;SDS011;11207;59.512;18.050;2023-04-16T07:01:35;7.07;;;5.50;;
22080;SDS011;11207;59.512;18.050;2023-04-16T07:04:01;11.57;;;5.90;;
22080;SDS011;11207;59.512;18.050;2023-04-16T07:06:27;6.50;;;5.20;;
22080;SDS011;11207;59.512;18.050;2023-04-16T07:08:53;9.03;;;5.63;;
22080;SDS011;11207;59.512;18.050;2023-04-16T07:11:18;6.17;;;5.33;;
22080;SDS011;11207;59.512;18.050;2023-04-16T07:13:47;6.07;;;5.50;;
22080;SDS011;11207;59.512;18.050;2023-04-16T07:16:20;7.03;;;5.47;;
22080;SDS011;11207;59.512;18.050;2023-04-16T07:19:11;7.13;;;6.10;;
22080;SDS011;11207;59.512;18.050;2023-04-16T07:21:37;5.80;;;5.17;;
22080;SDS011;11207;59.512;18.050;2023-04-16T07:24:03;6.10;;;5.17;;
22080;SDS011;11207;59.512;18.050;2023-04-16T07:26:29;5.87;;;5.07;;
22080;SDS011;11207;59.512;18.050;2023-04-16T07:28:55;5.63;;;5.00;;
22080;SDS011;11207;59.512;18.050;2023-04-16T07:31:20;6.47;;;5.37;;
22080;SDS011;11207;59.512;18.050;2023-04-16T07:33:46;6.57;;;4.80;;
22080;SDS011;11207;59.512;18.050;2023-04-16T07:36:12;5.67;;;5.13;;
22080;SDS011;11207;59.512;18.050;2023-04-16T07:38:38;9.30;;;5.30;;
22080;SDS011;11207;59.512;18.050;2023-04-16T07:41:03;7.87;;;5.23;;
22080;SDS011;11207;59.512;18.050;2023-04-16T07:43:29;5.93;;;5.10;;
22080;SDS011;11207;59.512;18.050;2023-04-16T07:45:55;5.37;;;4.87;;
22080;SDS011;11207;59.512;18.050;2023-04-16T07:48:20;5.33;;;4.83;;
22080;SDS011;11207;59.512;18.050;2023-04-16T07:50:46;4.87;;;4.37;;
22080;SDS011;11207;59.512;18.050;2023-04-16T07:53:11;7.27;;;4.60;;
22080;SDS011;11207;59.512;18.050;2023-04-16T07:55:37;5.60;;;4.57;;
22080;SDS011;11207;59.512;18.050;2023-04-16T07:58:03;6.77;;;4.60;;
22080;SDS011;11207;59.512;18.050;2023-04-16T08:00:30;7.47;;;4.63;;
22080;SDS011;11207;59.512;18.050;2023-04-16T08:02:56;10.70;;;4.43;;
22080;SDS011;11207;59.512;18.050;2023-04-16T08:05:21;5.53;;;4.60;;
22080;SDS011;11207;59.512;18.050;2023-04-16T08:07:47;6.77;;;4.33;;
22080;SDS011;11207;59.512;18.050;2023-04-16T08:10:13;5.60;;;4.90;;
22080;SDS011;11207;59.512;18.050;2023-04-16T08:12:38;7.97;;;4.57;;
22080;SDS011;11207;59.512;18.050;2023-04-16T08:15:04;5.10;;;4.60;;
22080;SDS011;11207;59.512;18.050;2023-04-16T08:17:31;7.67;;;5.00;;
22080;SDS011;11207;59.512;18.050;2023-04-16T08:19:58;5.97;;;4.80;;
22080;SDS011;11207;59.512;18.050;2023-04-16T08:22:24;7.17;;;4.77;;
22080;SDS011;11207;59.512;18.050;2023-04-16T08:24:50;5.40;;;4.73;;
22080;SDS011;11207;59.512;18.050;2023-04-16T08:27:16;5.67;;;4.17;;
22080;SDS011;11207;59.512;18.050;2023-04-16T08:29:41;8.17;;;4.73;;
22080;SDS011;11207;59.512;18.050;2023-04-16T08:32:07;7.80;;;4.10;;
22080;SDS011;11207;59.512;18.050;2023-04-16T08:34:34;5.10;;;4.60;;
22080;SDS011;11207;59.512;18.050;2023-04-16T08:37:01;5.97;;;4.30;;
22080;SDS011;11207;59.512;18.050;2023-04-16T08:39:26;5.47;;;4.40;;
22080;SDS011;11207;59.512;18.050;2023-04-16T08:41:52;7.97;;;4.57;;
22080;SDS011;11207;59.512;18.050;2023-04-16T08:44:20;6.23;;;4.00;;
22080;SDS011;11207;59.512;18.050;2023-04-16T08:46:50;5.87;;;4.20;;
22080;SDS011;11207;59.512;18.050;2023-04-16T08:49:22;7.27;;;4.30;;
22080;SDS011;11207;59.512;18.050;2023-04-16T08:51:49;9.13;;;4.90;;
22080;SDS011;11207;59.512;18.050;2023-04-16T08:54:20;5.40;;;4.10;;
22080;SDS011;11207;59.512;18.050;2023-04-16T08:56:49;6.00;;;4.60;;
22080;SDS011;11207;59.512;18.050;2023-04-16T08:59:15;8.43;;;4.13;;
22080;SDS011;11207;59.512;18.050;2023-04-16T09:01:41;4.53;;;3.97;;
22080;SDS011;11207;59.512;18.050;2023-04-16T09:04:06;8.33;;;4.23;;
22080;SDS011;11207;59.512;18.050;2023-04-16T09:06:33;6.93;;;4.20;;
22080;SDS011;11207;59.512;18.050;2023-04-16T09:09:00;5.57;;;4.93;;
22080;SDS011;11207;59.512;18.050;2023-04-16T09:11:28;7.20;;;4.67;;
22080;SDS011;11207;59.512;18.050;2023-04-16T09:13:54;5.93;;;4.33;;
22080;SDS011;11207;59.512;18.050;2023-04-16T09:16:21;7.57;;;4.07;;
22080;SDS011;11207;59.512;18.050;2023-04-16T09:18:47;6.73;;;4.80;;
22080;SDS011;11207;59.512;18.050;2023-04-16T09:21:13;14.67;;;4.50;;
22080;SDS011;11207;59.512;18.050;2023-04-16T09:23:39;7.87;;;4.17;;
22080;SDS011;11207;59.512;18.050;2023-04-16T09:26:05;8.33;;;4.40;;
22080;SDS011;11207;59.512;18.050;2023-04-16T09:28:41;5.33;;;3.53;;
22080;SDS011;11207;59.512;18.050;2023-04-16T09:31:12;5.00;;;4.33;;
22080;SDS011;11207;59.512;18.050;2023-04-16T09:33:39;5.47;;;4.37;;
22080;SDS011;11207;59.512;18.050;2023-04-16T09:36:06;6.67;;;4.47;;
22080;SDS011;11207;59.512;18.050;2023-04-16T09:38:48;7.60;;;4.77;;
22080;SDS011;11207;59.512;18.050;2023-04-16T09:41:15;6.30;;;4.67;;
22080;SDS011;11207;59.512;18.050;2023-04-16T09:43:48;7.43;;;4.57;;
22080;SDS011;11207;59.512;18.050;2023-04-16T09:46:21;8.07;;;4.53;;
22080;SDS011;11207;59.512;18.050;2023-04-16T09:48:54;9.47;;;4.83;;
22080;SDS011;11207;59.512;18.050;2023-04-16T09:51:20;6.90;;;4.50;;
22080;SDS011;11207;59.512;18.050;2023-04-16T09:53:45;8.97;;;5.07;;
22080;SDS011;11207;59.512;18.050;2023-04-16T09:56:11;5.73;;;4.87;;
22080;SDS011;11207;59.512;18.050;2023-04-16T09:58:37;5.87;;;4.50;;
22080;SDS011;11207;59.512;18.050;2023-04-16T10:01:10;6.07;;;4.20;;
22080;SDS011;11207;59.512;18.050;2023-04-16T10:03:37;9.47;;;4.27;;
22080;SDS011;11207;59.512;18.050;2023-04-16T10:06:08;5.23;;;3.90;;
22080;SDS011;11207;59.512;18.050;2023-04-16T10:08:52;11.73;;;4.90;;
22080;SDS011;11207;59.512;18.050;2023-04-16T10:11:21;9.73;;;4.40;;
22080;SDS011;11207;59.512;18.050;2023-04-16T10:13:47;7.43;;;4.53;;
22080;SDS011;11207;59.512;18.050;2023-04-16T10:16:13;10.50;;;4.60;;
22080;SDS011;11207;59.512;18.050;2023-04-16T10:18:40;7.80;;;3.97;;
22080;SDS011;11207;59.512;18.050;2023-04-16T10:21:08;5.80;;;4.50;;
22080;SDS011;11207;59.512;18.050;2023-04-16T10:23:39;5.63;;;4.00;;
22080;SDS011;11207;59.512;18.050;2023-04-16T10:26:05;6.80;;;4.60;;
22080;SDS011;11207;59.512;18.050;2023-04-16T10:28:31;8.00;;;4.30;;
22080;SDS011;11207;59.512;18.050;2023-04-16T10:30:59;10.07;;;4.20;;
22080;SDS011;11207;59.512;18.050;2023-04-16T10:33:36;9.07;;;4.10;;
22080;SDS011;11207;59.512;18.050;2023-04-16T10:36:09;4.27;;;3.87;;
22080;SDS011;11207;59.512;18.050;2023-04-16T10:38:45;5.33;;;4.17;;
22080;SDS011;11207;59.512;18.050;2023-04-16T10:41:12;8.03;;;4.43;;
22080;SDS011;11207;59.512;18.050;2023-04-16T10:43:38;7.43;;;4.10;;
22080;SDS011;11207;59.512;18.050;2023-04-16T10:46:24;8.00;;;4.40;;
22080;SDS011;11207;59.512;18.050;2023-04-16T10:48:55;6.20;;;4.70;;
22080;SDS011;11207;59.512;18.050;2023-04-16T10:51:32;6.70;;;4.67;;
22080;SDS011;11207;59.512;18.050;2023-04-16T10:56:34;5.70;;;4.20;;
22080;SDS011;11207;59.512;18.050;2023-04-16T10:59:03;6.23;;;4.20;;
22080;SDS011;11207;59.512;18.050;2023-04-16T11:04:45;7.53;;;4.30;;
22080;SDS011;11207;59.512;18.050;2023-04-16T11:12:16;8.10;;;3.97;;
22080;SDS011;11207;59.512;18.050;2023-04-16T11:14:48;6.93;;;4.43;;
22080;SDS011;11207;59.512;18.050;2023-04-16T11:17:18;7.87;;;4.23;;
22080;SDS011;11207;59.512;18.050;2023-04-16T11:19:45;6.17;;;4.07;;
22080;SDS011;11207;59.512;18.050;2023-04-16T11:22:12;8.60;;;4.60;;
22080;SDS011;11207;59.512;18.050;2023-04-16T11:24:41;7.60;;;4.07;;
22080;SDS011;11207;59.512;18.050;2023-04-16T11:27:11;14.70;;;4.33;;
22080;SDS011;11207;59.512;18.050;2023-04-16T11:29:37;10.97;;;4.47;;
22080;SDS011;11207;59.512;18.050;2023-04-16T11:32:03;6.07;;;4.00;;
22080;SDS011;11207;59.512;18.050;2023-04-16T11:34:29;5.10;;;3.57;;
22080;SDS011;11207;59.512;18.050;2023-04-16T11:36:55;6.90;;;4.33;;
22080;SDS011;11207;59.512;18.050;2023-04-16T11:39:21;6.73;;;3.90;;
22080;SDS011;11207;59.512;18.050;2023-04-16T11:41:47;6.20;;;4.07;;
22080;SDS011;11207;59.512;18.050;2023-04-16T11:46:47;4.10;;;3.37;;
22080;SDS011;11207;59.512;18.050;2023-04-16T11:49:13;7.03;;;3.87;;
22080;SDS011;11207;59.512;18.050;2023-04-16T11:51:42;5.97;;;3.53;;
22080;SDS011;11207;59.512;18.050;2023-04-16T11:54:08;5.73;;;3.90;;
22080;SDS011;11207;59.512;18.050;2023-04-16T11:56:43;9.57;;;4.40;;
22080;SDS011;11207;59.512;18.050;2023-04-16T11:59:13;7.83;;;4.27;;
22080;SDS011;11207;59.512;18.050;2023-04-16T12:01:40;5.97;;;4.00;;
22080;SDS011;11207;59.512;18.050;2023-04-16T12:04:06;5.17;;;3.47;;
22080;SDS011;11207;59.512;18.050;2023-04-16T12:06:32;6.07;;;3.80;;
22080;SDS011;11207;59.512;18.050;2023-04-16T12:09:21;9.30;;;4.60;;
22080;SDS011;11207;59.512;18.050;2023-04-16T12:11:48;9.00;;;4.40;;
22080;SDS011;11207;59.512;18.050;2023-04-16T12:14:13;10.87;;;4.07;;
22080;SDS011;11207;59.512;18.050;2023-04-16T12:16:39;7.70;;;3.93;;
22080;SDS011;11207;59.512;18.050;2023-04-16T12:19:04;8.13;;;3.83;;
22080;SDS011;11207;59.512;18.050;2023-04-16T12:21:40;5.97;;;3.93;;
22080;SDS011;11207;59.512;18.050;2023-04-16T12:24:11;9.10;;;3.87;;
22080;SDS011;11207;59.512;18.050;2023-04-16T12:26:39;5.20;;;3.23;;
22080;SDS011;11207;59.512;18.050;2023-04-16T12:29:42;6.10;;;3.67;;
22080;SDS011;11207;59.512;18.050;2023-04-16T12:32:02;4.57;;;3.10;;
22080;SDS011;11207;59.512;18.050;2023-04-16T12:34:28;8.80;;;3.83;;
22080;SDS011;11207;59.512;18.050;2023-04-16T12:37:05;8.93;;;3.57;;
22080;SDS011;11207;59.512;18.050;2023-04-16T12:39:33;8.67;;;3.50;;
22080;SDS011;11207;59.512;18.050;2023-04-16T12:41:59;5.97;;;4.07;;
22080;SDS011;11207;59.512;18.050;2023-04-16T12:44:25;5.93;;;3.33;;
22080;SDS011;11207;59.512;18.050;2023-04-16T12:46:51;5.33;;;3.60;;
22080;SDS011;11207;59.512;18.050;2023-04-16T12:49:17;5.43;;;3.70;;
22080;SDS011;11207;59.512;18.050;2023-04-16T12:51:43;6.97;;;4.17;;
22080;SDS011;11207;59.512;18.050;2023-04-16T12:54:08;8.03;;;4.47;;
22080;SDS011;11207;59.512;18.050;2023-04-16T12:56:37;6.30;;;4.00;;
22080;SDS011;11207;59.512;18.050;2023-04-16T12:59:02;5.73;;;4.00;;
22080;SDS011;11207;59.512;18.050;2023-04-16T13:01:28;10.43;;;4.70;;
22080;SDS011;11207;59.512;18.050;2023-04-16T13:03:54;5.47;;;3.53;;
22080;SDS011;11207;59.512;18.050;2023-04-16T13:06:20;8.77;;;5.07;;
22080;SDS011;11207;59.512;18.050;2023-04-16T13:08:46;6.60;;;4.07;;
22080;SDS011;11207;59.512;18.050;2023-04-16T13:11:11;7.40;;;4.07;;
22080;SDS011;11207;59.512;18.050;2023-04-16T13:13:37;8.87;;;3.77;;
22080;SDS011;11207;59.512;18.050;2023-04-16T13:16:02;8.87;;;4.30;;
22080;SDS011;11207;59.512;18.050;2023-04-16T13:18:30;6.37;;;3.90;;
22080;SDS011;11207;59.512;18.050;2023-04-16T13:20:56;6.40;;;4.10;;
22080;SDS011;11207;59.512;18.050;2023-04-16T13:23:22;5.77;;;4.03;;
22080;SDS011;11207;59.512;18.050;2023-04-16T13:25:48;4.27;;;3.40;;
22080;SDS011;11207;59.512;18.050;2023-04-16T13:28:13;6.13;;;4.40;;
22080;SDS011;11207;59.512;18.050;2023-04-16T13:30:39;6.07;;;4.13;;
22080;SDS011;11207;59.512;18.050;2023-04-16T13:33:05;6.50;;;4.30;;
22080;SDS011;11207;59.512;18.050;2023-04-16T13:35:30;6.57;;;3.87;;
22080;SDS011;11207;59.512;18.050;2023-04-16T13:37:56;6.10;;;4.10;;
22080;SDS011;11207;59.512;18.050;2023-04-16T13:40:21;7.30;;;4.30;;
22080;SDS011;11207;59.512;18.050;2023-04-16T13:42:47;6.47;;;4.47;;
22080;SDS011;11207;59.512;18.050;2023-04-16T13:45:12;6.13;;;3.80;;
22080;SDS011;11207;59.512;18.050;2023-04-16T13:47:41;4.60;;;3.63;;
22080;SDS011;11207;59.512;18.050;2023-04-16T13:50:07;6.20;;;4.07;;
22080;SDS011;11207;59.512;18.050;2023-04-16T13:52:33;7.33;;;4.40;;
22080;SDS011;11207;59.512;18.050;2023-04-16T13:55:00;5.73;;;4.10;;
22080;SDS011;11207;59.512;18.050;2023-04-16T13:57:26;8.10;;;3.87;;
22080;SDS011;11207;59.512;18.050;2023-04-16T13:59:53;8.13;;;4.30;;
22080;SDS011;11207;59.512;18.050;2023-04-16T14:02:19;10.27;;;4.07;;
22080;SDS011;11207;59.512;18.050;2023-04-16T14:04:45;9.93;;;4.30;;
22080;SDS011;11207;59.512;18.050;2023-04-16T14:07:11;5.67;;;3.90;;
22080;SDS011;11207;59.512;18.050;2023-04-16T14:09:37;6.10;;;3.97;;
22080;SDS011;11207;59.512;18.050;2023-04-16T14:12:02;8.17;;;3.97;;
22080;SDS011;11207;59.512;18.050;2023-04-16T14:14:28;7.20;;;4.53;;
22080;SDS011;11207;59.512;18.050;2023-04-16T14:16:57;5.70;;;4.20;;
22080;SDS011;11207;59.512;18.050;2023-04-16T14:19:23;7.10;;;3.90;;
22080;SDS011;11207;59.512;18.050;2023-04-16T14:21:49;5.87;;;3.87;;
22080;SDS011;11207;59.512;18.050;2023-04-16T14:24:16;5.00;;;3.77;;
22080;SDS011;11207;59.512;18.050;2023-04-16T14:26:42;7.90;;;4.30;;
22080;SDS011;11207;59.512;18.050;2023-04-16T14:29:08;6.43;;;3.97;;
22080;SDS011;11207;59.512;18.050;2023-04-16T14:31:34;10.37;;;4.17;;
22080;SDS011;11207;59.512;18.050;2023-04-16T14:34:00;4.10;;;3.50;;
22080;SDS011;11207;59.512;18.050;2023-04-16T14:36:29;4.17;;;3.17;;
22080;SDS011;11207;59.512;18.050;2023-04-16T14:38:55;9.67;;;4.53;;
22080;SDS011;11207;59.512;18.050;2023-04-16T14:41:20;4.93;;;3.40;;
22080;SDS011;11207;59.512;18.050;2023-04-16T14:43:46;6.00;;;3.90;;